Time;durP1;ratioP1;P1;durP2;ratioP2;P2;SDS_P1;SDS_P2;PMS_P1;PMS_P2;Temp;Humidity;BMP_temperature;BMP_pressure;BME280_temperature;BME280_humidity;BME280_pressure;Samples;Min_cycle;Max_cycle;Signal;HPM_P1;HPM_P2
2022/08/25 00:01:14;;;;;;;33.97;24.33;;;22.20;99.90;;;;;;5075701;28;20173;-71
2022/08/25 00:03:42;;;;;;;31.05;23.58;;;22.20;99.90;;;;;;5075846;28;20031;-69
2022/08/25 00:06:08;;;;;;;29.25;22.67;;;22.10;99.90;;;;;;5075752;28;20047;-68
2022/08/25 00:08:36;;;;;;;32.10;23.23;;;22.10;99.90;;;;;;5075797;28;20031;-70
2022/08/25 00:11:04;;;;;;;29.52;23.83;;;22.10;99.90;;;;;;5075389;28;20362;-68
2022/08/25 00:13:30;;;;;;;32.35;23.92;;;22.10;99.90;;;;;;5075533;28;20021;-68
2022/08/25 00:15:56;;;;;;;32.92;24.77;;;22.10;99.90;;;;;;5075662;28;20021;-66
2022/08/25 00:18:21;;;;;;;31.38;24.52;;;22.00;99.90;;;;;;5075049;28;20032;-68
2022/08/25 00:20:48;;;;;;;31.00;24.02;;;22.00;99.90;;;;;;5075130;28;20036;-68
2022/08/25 00:23:13;;;;;;;34.78;26.13;;;22.00;99.90;;;;;;5075537;28;20024;-70
2022/08/25 00:25:39;;;;;;;32.78;25.60;;;22.00;99.90;;;;;;5074958;28;20111;-67
2022/08/25 00:28:05;;;;;;;30.67;23.90;;;22.00;99.90;;;;;;5075131;28;20028;-71
2022/08/25 00:30:31;;;;;;;33.97;26.55;;;21.90;99.90;;;;;;5075217;28;20029;-67
2022/08/25 00:32:56;;;;;;;32.33;24.35;;;21.90;99.90;;;;;;5075119;28;20070;-67
2022/08/25 00:35:23;;;;;;;33.20;26.58;;;21.90;99.90;;;;;;5074979;28;20028;-68
2022/08/25 00:37:49;;;;;;;34.83;25.65;;;21.90;99.90;;;;;;5074852;28;20064;-67
2022/08/25 00:40:14;;;;;;;31.63;24.92;;;21.90;99.90;;;;;;5074990;28;20071;-68
2022/08/25 00:42:40;;;;;;;34.55;26.90;;;21.80;99.90;;;;;;5074722;28;20029;-68
2022/08/25 00:45:08;;;;;;;33.42;25.90;;;21.80;99.90;;;;;;5075229;28;20507;-69
2022/08/25 00:47:34;;;;;;;33.85;26.60;;;21.80;99.90;;;;;;5074964;28;20052;-69
2022/08/25 00:50:03;;;;;;;36.75;26.00;;;21.80;99.90;;;;;;5074890;28;20021;-67
2022/08/25 00:52:33;;;;;;;33.10;25.63;;;21.80;99.90;;;;;;5074687;28;20021;-68
2022/08/25 00:55:17;;;;;;;33.67;26.60;;;21.80;99.90;;;;;;5074520;28;20032;-69
2022/08/25 00:57:47;;;;;;;32.08;25.10;;;21.80;99.90;;;;;;5075126;28;20066;-68
2022/08/25 01:00:22;;;;;;;34.85;25.15;;;21.80;99.90;;;;;;5074729;28;20097;-67
2022/08/25 01:02:47;;;;;;;34.47;27.05;;;21.70;99.90;;;;;;5074241;28;20113;-68
2022/08/25 01:05:13;;;;;;;33.20;25.65;;;21.70;99.90;;;;;;5074358;28;20020;-68
2022/08/25 01:07:42;;;;;;;34.58;25.40;;;21.70;99.90;;;;;;5073925;28;20420;-70
2022/08/25 01:10:09;;;;;;;35.58;27.30;;;21.70;99.90;;;;;;5072887;28;20533;-68
2022/08/25 01:12:36;;;;;;;34.38;27.10;;;21.60;99.90;;;;;;5074528;28;20138;-69
2022/08/25 01:15:04;;;;;;;32.15;27.13;;;21.70;99.90;;;;;;5074020;28;20025;-68
2022/08/25 01:17:38;;;;;;;31.50;26.05;;;21.60;99.90;;;;;;5074034;28;20024;-69
2022/08/25 01:20:04;;;;;;;36.20;27.77;;;21.60;99.90;;;;;;5073351;28;20458;-70
2022/08/25 01:22:30;;;;;;;38.22;26.95;;;21.60;99.90;;;;;;5073736;28;20066;-68
2022/08/25 01:25:02;;;;;;;33.50;26.58;;;21.60;99.90;;;;;;5070751;28;20020;-69
2022/08/25 01:27:28;;;;;;;35.45;28.40;;;21.60;99.90;;;;;;5053814;28;20117;-70
2022/08/25 01:29:56;;;;;;;32.88;26.73;;;21.60;99.90;;;;;;5059047;28;20446;-69
2022/08/25 01:32:22;;;;;;;37.85;28.23;;;21.60;99.90;;;;;;5073337;28;20357;-68
2022/08/25 01:34:48;;;;;;;35.40;27.67;;;21.50;99.90;;;;;;5073733;28;20245;-69
2022/08/25 01:37:15;;;;;;;36.33;27.63;;;21.50;99.90;;;;;;5073549;28;20017;-67
2022/08/25 01:39:42;;;;;;;34.88;28.13;;;21.50;99.90;;;;;;5073669;28;20068;-68
2022/08/25 01:42:16;;;;;;;34.85;27.27;;;21.50;99.90;;;;;;5073256;28;20067;-67
2022/08/25 01:44:43;;;;;;;34.70;28.40;;;21.50;99.90;;;;;;5073493;28;20096;-70
2022/08/25 01:47:10;;;;;;;37.25;30.00;;;21.50;99.90;;;;;;5072264;28;20351;-71
2022/08/25 01:49:36;;;;;;;37.22;30.23;;;21.50;99.90;;;;;;5073397;28;20052;-68
2022/08/25 01:52:22;;;;;;;35.03;26.35;;;21.50;99.90;;;;;;5073257;28;20012;-68
2022/08/25 01:54:48;;;;;;;38.08;28.98;;;21.40;99.90;;;;;;5073338;28;20035;-68
2022/08/25 01:57:14;;;;;;;35.88;29.75;;;21.40;99.90;;;;;;5073243;28;20024;-69
2022/08/25 01:59:40;;;;;;;37.97;28.70;;;21.40;99.90;;;;;;5071440;28;20090;-68
2022/08/25 02:02:06;;;;;;;38.70;30.00;;;21.40;99.90;;;;;;5073165;28;20028;-67
2022/08/25 02:04:32;;;;;;;37.60;29.90;;;21.40;99.90;;;;;;5073197;28;20408;-67
2022/08/25 02:07:04;;;;;;;37.53;30.45;;;21.40;99.90;;;;;;5073224;28;20035;-67
2022/08/25 02:09:30;;;;;;;35.58;29.23;;;21.40;99.90;;;;;;5073111;28;20465;-67
2022/08/25 02:11:56;;;;;;;37.45;30.63;;;21.40;99.90;;;;;;5071566;28;20025;-68
2022/08/25 02:14:22;;;;;;;40.42;32.85;;;21.30;99.90;;;;;;5071399;28;20414;-66
2022/08/25 02:16:50;;;;;;;41.08;32.13;;;21.30;99.90;;;;;;5072922;28;20020;-68
2022/08/25 02:19:17;;;;;;;39.53;32.08;;;21.30;99.90;;;;;;5072708;28;20036;-68
2022/08/25 02:21:43;;;;;;;40.22;31.25;;;21.30;99.90;;;;;;5072822;28;20099;-67
2022/08/25 02:24:09;;;;;;;40.45;31.83;;;21.30;99.90;;;;;;5072776;28;20154;-68
2022/08/25 02:26:35;;;;;;;40.72;33.67;;;21.20;99.90;;;;;;5071220;28;20445;-67
2022/08/25 02:29:01;;;;;;;40.53;32.88;;;21.20;99.90;;;;;;5072798;28;20031;-66
2022/08/25 02:31:27;;;;;;;41.40;34.78;;;21.20;99.90;;;;;;5072500;28;20108;-67
2022/08/25 02:33:53;;;;;;;43.58;34.20;;;21.10;99.90;;;;;;5073085;28;20054;-69
2022/08/25 02:36:20;;;;;;;46.95;35.05;;;21.20;99.90;;;;;;5072646;28;20027;-67
2022/08/25 02:38:46;;;;;;;44.08;35.22;;;21.20;99.90;;;;;;5072730;28;20036;-67
2022/08/25 02:41:20;;;;;;;46.35;34.95;;;21.20;99.90;;;;;;5072506;28;20024;-67
2022/08/25 02:43:47;;;;;;;44.28;35.08;;;21.20;99.90;;;;;;5072428;28;20067;-67
2022/08/25 02:46:14;;;;;;;44.40;34.97;;;21.20;99.90;;;;;;5072846;28;20016;-68
2022/08/25 02:48:41;;;;;;;43.03;33.55;;;21.10;99.90;;;;;;5072996;28;20113;-67
2022/08/25 02:51:08;;;;;;;45.25;36.42;;;21.10;99.90;;;;;;5072692;28;20024;-67
2022/08/25 02:53:37;;;;;;;45.20;37.20;;;21.10;99.90;;;;;;5072453;28;20021;-67
2022/08/25 02:56:03;;;;;;;43.97;35.78;;;21.10;99.90;;;;;;5072485;28;20021;-67
2022/08/25 02:58:29;;;;;;;47.45;37.38;;;21.10;99.90;;;;;;5073632;28;20119;-67
2022/08/25 03:00:55;;;;;;;44.80;36.75;;;21.00;99.90;;;;;;5076752;28;20100;-68
2022/08/25 03:03:21;;;;;;;48.00;39.80;;;21.10;99.90;;;;;;5076601;28;20052;-68
2022/08/25 03:05:47;;;;;;;48.90;38.88;;;21.00;99.90;;;;;;5076942;28;20083;-67
2022/08/25 03:08:12;;;;;;;47.42;39.03;;;21.00;99.90;;;;;;5076112;28;20538;-68
2022/08/25 03:10:38;;;;;;;47.53;39.13;;;21.00;99.90;;;;;;5075983;28;20099;-70
2022/08/25 03:13:04;;;;;;;55.13;41.17;;;21.00;99.90;;;;;;5076347;28;20470;-68
2022/08/25 03:15:30;;;;;;;47.03;39.45;;;21.00;99.90;;;;;;5076526;28;20100;-68
2022/08/25 03:17:56;;;;;;;49.30;40.90;;;21.00;99.90;;;;;;5076317;28;20107;-68
2022/08/25 03:20:23;;;;;;;49.65;40.65;;;21.00;99.90;;;;;;5076267;28;20107;-69
2022/08/25 03:22:49;;;;;;;50.58;40.67;;;21.00;99.90;;;;;;5075903;28;20024;-68
2022/08/25 03:28:00;;;;;;;44.17;38.05;;;21.00;99.90;;;;;;5076036;28;20036;-71
2022/08/25 03:30:26;;;;;;;50.10;41.05;;;21.00;99.90;;;;;;5075633;28;20104;-68
2022/08/25 03:32:52;;;;;;;49.15;39.88;;;20.90;99.90;;;;;;5075329;28;20055;-68
2022/08/25 03:35:18;;;;;;;51.67;42.70;;;21.00;99.90;;;;;;5076150;28;20107;-68
2022/08/25 03:37:43;;;;;;;51.25;40.83;;;20.90;99.90;;;;;;5075523;28;20119;-70
2022/08/25 03:40:11;;;;;;;54.17;42.90;;;20.90;99.90;;;;;;5075918;28;20067;-68
2022/08/25 03:42:43;;;;;;;52.28;41.10;;;20.90;99.90;;;;;;5075939;28;20048;-70
2022/08/25 03:45:10;;;;;;;51.90;42.80;;;20.90;99.90;;;;;;5075470;28;20031;-68
2022/08/25 03:47:37;;;;;;;56.55;43.65;;;20.90;99.90;;;;;;5075606;28;20024;-67
2022/08/25 03:50:04;;;;;;;53.65;44.25;;;20.90;99.90;;;;;;5075610;28;20446;-67
2022/08/25 03:52:30;;;;;;;49.63;42.03;;;20.90;99.90;;;;;;5075021;28;20020;-67
2022/08/25 03:54:56;;;;;;;55.25;42.55;;;20.90;99.90;;;;;;5075694;28;20473;-68
2022/08/25 03:57:21;;;;;;;56.25;44.38;;;20.90;99.90;;;;;;5075238;28;20525;-67
2022/08/25 03:59:47;;;;;;;52.78;42.53;;;20.80;99.90;;;;;;5075433;28;20044;-68
2022/08/25 04:02:12;;;;;;;58.90;43.75;;;20.80;99.90;;;;;;5075589;28;20028;-67
2022/08/25 04:04:39;;;;;;;58.63;44.97;;;20.80;99.90;;;;;;5074861;28;20419;-67
2022/08/25 04:07:05;;;;;;;53.40;45.20;;;20.80;99.90;;;;;;5075124;28;20458;-66
2022/08/25 04:09:30;;;;;;;58.03;44.88;;;20.80;99.90;;;;;;5074511;28;20020;-69
2022/08/25 04:11:56;;;;;;;55.67;45.92;;;20.80;99.90;;;;;;5075153;28;20021;-67
2022/08/25 04:14:22;;;;;;;59.75;44.65;;;20.80;99.90;;;;;;5074928;28;20025;-70
2022/08/25 04:16:48;;;;;;;53.55;43.53;;;20.80;99.90;;;;;;5075068;28;20024;-69
2022/08/25 04:19:13;;;;;;;54.17;42.45;;;20.80;99.90;;;;;;5074620;28;20105;-67
2022/08/25 04:21:40;;;;;;;52.50;40.33;;;20.80;99.90;;;;;;5074972;28;20056;-67
2022/08/25 04:24:08;;;;;;;44.78;37.38;;;20.70;99.90;;;;;;5075024;28;20017;-66
2022/08/25 04:26:37;;;;;;;44.38;37.15;;;20.70;99.90;;;;;;5058566;28;20029;-67
2022/08/25 04:29:05;;;;;;;46.38;35.72;;;20.70;99.90;;;;;;5055173;28;20017;-68
2022/08/25 04:31:31;;;;;;;42.38;35.00;;;20.70;99.90;;;;;;5054749;28;20024;-68
2022/08/25 04:33:57;;;;;;;41.35;32.85;;;20.70;99.90;;;;;;5053373;28;20111;-67
2022/08/25 04:36:23;;;;;;;40.25;32.42;;;20.70;99.90;;;;;;5054625;28;20028;-68
2022/08/25 04:38:49;;;;;;;40.20;31.13;;;20.70;99.90;;;;;;5054813;28;20048;-68
2022/08/25 04:41:18;;;;;;;41.05;30.30;;;20.70;99.90;;;;;;5054660;28;20028;-66
2022/08/25 04:43:44;;;;;;;38.63;28.10;;;20.70;99.90;;;;;;5054669;28;20013;-69
2022/08/25 04:46:14;;;;;;;34.42;26.98;;;20.70;99.90;;;;;;5054460;28;20017;-67
2022/08/25 04:48:40;;;;;;;31.23;25.38;;;20.70;99.90;;;;;;5054630;28;20036;-66
2022/08/25 04:51:09;;;;;;;32.22;23.45;;;20.70;99.90;;;;;;5054483;28;20031;-67
2022/08/25 04:53:36;;;;;;;29.30;23.08;;;20.70;99.90;;;;;;5054288;28;20099;-69
2022/08/25 04:56:06;;;;;;;26.73;20.42;;;20.70;99.90;;;;;;5054370;28;20021;-68
2022/08/25 04:58:32;;;;;;;25.05;19.55;;;20.80;99.90;;;;;;5054176;28;20025;-67
2022/08/25 05:01:22;;;;;;;25.92;17.35;;;20.80;99.90;;;;;;5054104;28;20017;-68
2022/08/25 05:03:56;;;;;;;23.13;16.50;;;20.80;99.90;;;;;;5053016;28;20033;-67
2022/08/25 05:06:22;;;;;;;25.33;17.02;;;20.80;99.90;;;;;;5054653;28;20017;-69
2022/08/25 05:08:48;;;;;;;23.63;16.38;;;20.80;99.90;;;;;;5054227;28;20083;-70
2022/08/25 05:11:16;;;;;;;21.73;15.52;;;20.90;99.90;;;;;;5052825;28;20415;-67
2022/08/25 05:13:44;;;;;;;21.48;14.77;;;20.90;99.90;;;;;;5054153;28;20025;-67
2022/08/25 05:16:09;;;;;;;22.52;13.40;;;21.00;99.90;;;;;;5053885;28;20017;-67
2022/08/25 05:18:35;;;;;;;19.38;11.98;;;21.00;99.90;;;;;;5054139;28;20356;-67
2022/08/25 05:21:03;;;;;;;17.08;12.93;;;21.00;99.90;;;;;;5053359;28;20032;-68
2022/08/25 05:23:29;;;;;;;22.08;12.93;;;21.10;99.90;;;;;;5054067;28;20025;-68
2022/08/25 05:25:55;;;;;;;16.92;11.07;;;21.10;99.90;;;;;;5064834;28;20029;-67
2022/08/25 05:28:21;;;;;;;16.52;10.48;;;21.10;99.90;;;;;;5073888;28;20103;-69
2022/08/25 05:30:49;;;;;;;17.30;10.73;;;21.20;99.90;;;;;;5073315;28;20471;-67
2022/08/25 05:33:16;;;;;;;15.95;10.80;;;21.20;99.90;;;;;;5072458;28;20158;-67
2022/08/25 05:35:42;;;;;;;15.77;9.63;;;21.30;99.90;;;;;;5072418;28;20043;-69
2022/08/25 05:38:07;;;;;;;16.77;9.48;;;21.40;99.90;;;;;;5072194;28;20070;-67
2022/08/25 05:40:33;;;;;;;15.25;8.65;;;21.40;99.90;;;;;;5072425;28;20097;-70
2022/08/25 05:42:59;;;;;;;11.52;8.27;;;21.50;99.90;;;;;;5072274;28;20074;-67
2022/08/25 05:45:24;;;;;;;16.80;9.18;;;21.60;99.90;;;;;;5072406;28;20033;-68
2022/08/25 05:47:50;;;;;;;13.25;7.97;;;21.70;99.90;;;;;;5072561;28;20021;-70
2022/08/25 05:50:16;;;;;;;17.27;8.05;;;21.80;99.90;;;;;;5072157;28;20074;-70
2022/08/25 05:52:42;;;;;;;12.77;7.38;;;21.80;99.90;;;;;;5072491;28;20437;-67
2022/08/25 05:55:09;;;;;;;13.00;7.38;;;21.90;99.90;;;;;;5072134;28;20102;-70
2022/08/25 05:57:35;;;;;;;12.40;7.25;;;21.90;99.90;;;;;;5071091;28;20024;-68
2022/08/25 06:00:03;;;;;;;12.45;7.57;;;22.00;99.90;;;;;;5072212;28;20051;-68
2022/08/25 06:02:42;;;;;;;16.35;7.47;;;22.10;99.90;;;;;;5071853;28;20063;-71
2022/08/25 06:05:10;;;;;;;14.45;7.00;;;22.20;99.90;;;;;;5073414;28;20020;-71
2022/08/25 06:07:36;;;;;;;16.08;7.22;;;22.30;99.90;;;;;;5073057;28;20048;-68
2022/08/25 06:10:05;;;;;;;13.88;6.93;;;22.40;99.90;;;;;;5073334;28;20051;-70
2022/08/25 06:12:32;;;;;;;13.43;6.68;;;22.50;99.90;;;;;;5073346;28;20017;-69
2022/08/25 06:14:58;;;;;;;15.98;6.22;;;22.60;99.90;;;;;;5073288;28;20090;-68
2022/08/25 06:17:23;;;;;;;11.27;6.47;;;22.80;99.90;;;;;;5073044;28;20366;-69
2022/08/25 06:19:49;;;;;;;13.05;6.10;;;22.90;99.90;;;;;;5073185;28;20024;-68
2022/08/25 06:22:14;;;;;;;12.65;6.55;;;23.10;99.90;;;;;;5072835;28;20420;-72
2022/08/25 06:24:40;;;;;;;8.90;5.38;;;23.20;99.90;;;;;;5073080;28;20025;-69
2022/08/25 06:27:05;;;;;;;13.65;5.75;;;23.30;99.90;;;;;;5072970;28;20066;-67
2022/08/25 06:29:31;;;;;;;12.55;5.63;;;23.50;99.90;;;;;;5073004;28;20105;-70
2022/08/25 06:31:57;;;;;;;9.85;6.07;;;23.60;99.90;;;;;;5072842;28;20465;-67
2022/08/25 06:34:22;;;;;;;10.70;5.75;;;23.80;99.90;;;;;;5073164;28;20339;-67
2022/08/25 06:36:49;;;;;;;10.70;5.93;;;23.90;99.90;;;;;;5072777;28;20024;-67
2022/08/25 06:39:15;;;;;;;13.73;6.45;;;24.00;99.90;;;;;;5072805;28;20028;-68
2022/08/25 06:41:41;;;;;;;9.98;5.70;;;24.00;99.90;;;;;;5072817;28;20033;-66
2022/08/25 06:44:06;;;;;;;11.45;6.40;;;24.00;99.90;;;;;;5072849;28;20327;-67
2022/08/25 06:46:33;;;;;;;11.82;5.47;;;24.10;99.90;;;;;;5072864;28;20357;-71
2022/08/25 06:48:59;;;;;;;10.73;5.55;;;24.20;99.90;;;;;;5072483;28;20020;-70
2022/08/25 06:51:26;;;;;;;15.05;5.97;;;24.20;99.90;;;;;;5072268;28;20016;-72
2022/08/25 06:53:52;;;;;;;11.75;5.57;;;24.30;99.90;;;;;;5072716;28;20024;-68
2022/08/25 06:56:20;;;;;;;10.13;5.07;;;24.50;99.90;;;;;;5072789;28;20020;-69
2022/08/25 06:58:46;;;;;;;10.27;4.95;;;24.70;99.90;;;;;;5072635;28;20434;-67
2022/08/25 07:01:14;;;;;;;11.07;4.88;;;24.90;99.90;;;;;;5072797;28;20020;-69
2022/08/25 07:03:41;;;;;;;9.85;5.07;;;25.10;99.90;;;;;;5072795;28;20023;-71
2022/08/25 07:06:08;;;;;;;12.30;5.15;;;25.10;99.90;;;;;;5072306;28;20021;-68
2022/08/25 07:08:34;;;;;;;10.43;4.80;;;25.20;99.60;;;;;;5072184;28;20442;-67
2022/08/25 07:11:10;;;;;;;10.48;4.80;;;25.30;99.40;;;;;;5072807;28;20457;-66
2022/08/25 07:13:37;;;;;;;8.45;4.15;;;25.50;99.20;;;;;;5072495;28;20070;-66
2022/08/25 07:16:04;;;;;;;8.75;4.35;;;25.80;99.00;;;;;;5072578;28;20107;-68
2022/08/25 07:18:30;;;;;;;9.60;4.70;;;26.10;98.50;;;;;;5072139;28;20111;-69
2022/08/25 07:20:57;;;;;;;11.02;4.50;;;26.40;97.70;;;;;;5072460;28;20029;-67
2022/08/25 07:23:23;;;;;;;9.38;4.00;;;26.80;97.40;;;;;;5072602;28;20017;-68
2022/08/25 07:25:49;;;;;;;9.77;4.13;;;27.20;96.70;;;;;;5072561;28;20412;-67
2022/08/25 07:28:16;;;;;;;10.80;3.92;;;27.40;95.80;;;;;;5072181;28;20025;-67
2022/08/25 07:30:42;;;;;;;9.40;3.70;;;27.50;95.70;;;;;;5072576;28;20434;-67
2022/08/25 07:33:08;;;;;;;6.20;3.83;;;27.50;95.30;;;;;;5072232;28;20111;-70
2022/08/25 07:35:35;;;;;;;9.93;4.22;;;27.60;95.30;;;;;;5072606;28;20020;-69
2022/08/25 07:38:00;;;;;;;6.15;3.65;;;27.70;95.00;;;;;;5072432;28;20021;-67
2022/08/25 07:40:31;;;;;;;9.18;3.80;;;27.80;94.30;;;;;;5072040;28;20020;-66
2022/08/25 07:42:59;;;;;;;11.13;3.63;;;27.90;93.60;;;;;;5072353;28;20104;-67
2022/08/25 07:45:30;;;;;;;7.72;3.47;;;28.10;93.50;;;;;;5075284;28;20092;-67
2022/08/25 07:48:02;;;;;;;7.15;3.47;;;28.30;93.30;;;;;;5076085;28;20470;-67
2022/08/25 07:50:28;;;;;;;;;;;28.50;93.10;;;;;;5076431;28;20031;-66
2022/08/25 07:52:55;;;;;;;7.47;3.63;;;28.80;92.20;;;;;;5075604;28;20345;-66
2022/08/25 07:55:22;;;;;;;10.70;3.58;;;29.00;92.00;;;;;;5075115;28;20062;-67
2022/08/25 07:57:47;;;;;;;9.25;3.80;;;29.50;91.90;;;;;;5075181;28;20073;-66
2022/08/25 08:00:15;;;;;;;7.55;3.60;;;29.90;91.10;;;;;;5075265;28;20044;-67
2022/08/25 08:02:41;;;;;;;8.55;3.17;;;30.40;90.20;;;;;;5075829;28;20025;-66
2022/08/25 08:05:08;;;;;;;8.40;3.28;;;30.90;89.20;;;;;;5075668;28;20020;-70
2022/08/25 08:07:34;;;;;;;8.88;2.75;;;31.50;87.30;;;;;;5074802;28;20024;-69
2022/08/25 08:10:00;;;;;;;8.35;3.60;;;32.10;86.20;;;;;;5075991;28;20107;-67
2022/08/25 08:12:27;;;;;;;7.68;3.20;;;32.90;84.70;;;;;;5075338;28;20021;-68
2022/08/25 08:14:52;;;;;;;9.50;3.17;;;33.70;82.00;;;;;;5075421;28;20016;-68
2022/08/25 08:17:19;;;;;;;6.50;2.90;;;34.50;80.70;;;;;;5075540;28;20024;-68
2022/08/25 08:19:45;;;;;;;6.60;2.80;;;34.90;78.30;;;;;;5075400;28;20049;-67
2022/08/25 08:22:14;;;;;;;7.07;3.05;;;35.30;77.00;;;;;;5075849;28;20020;-68
2022/08/25 08:24:41;;;;;;;8.65;3.17;;;35.50;75.70;;;;;;5075477;28;20047;-67
2022/08/25 08:27:07;;;;;;;8.77;3.03;;;35.60;75.10;;;;;;5074931;28;20374;-68
2022/08/25 08:29:34;;;;;;;7.15;2.97;;;35.90;74.80;;;;;;5075500;28;20012;-67
2022/08/25 08:32:02;;;;;;;6.88;2.97;;;36.50;73.00;;;;;;5075317;28;20154;-67
2022/08/25 08:34:28;;;;;;;5.78;3.03;;;36.70;71.00;;;;;;5060774;28;20017;-66
2022/08/25 08:36:54;;;;;;;5.72;2.90;;;37.00;70.60;;;;;;5071456;28;20051;-67
2022/08/25 08:39:20;;;;;;;13.40;3.60;;;37.20;69.50;;;;;;5074550;28;20075;-67
2022/08/25 08:44:41;;;;;;;6.43;2.80;;;37.40;68.30;;;;;;5074963;28;20464;-69
2022/08/25 08:47:36;;;;;;;6.78;3.25;;;37.60;68.10;;;;;;5074998;28;20017;-67
2022/08/25 08:50:30;;;;;;;10.13;3.05;;;38.00;67.10;;;;;;5075114;28;20103;-67
2022/08/25 08:53:28;;;;;;;7.22;2.85;;;38.20;66.70;;;;;;5074884;28;20021;-68
2022/08/25 08:55:58;;;;;;;9.10;3.15;;;38.70;66.10;;;;;;5073297;28;20068;-67
2022/08/25 08:58:39;;;;;;;;;;;39.00;64.90;;;;;;5074653;28;20029;-68
2022/08/25 09:01:07;;;;;;;5.40;3.10;;;39.30;64.50;;;;;;5074628;28;19907;-70
2022/08/25 09:03:40;;;;;;;7.68;3.22;;;39.90;63.40;;;;;;5073986;28;20044;-67
2022/08/25 09:06:29;;;;;;;7.00;2.92;;;40.20;62.40;;;;;;5073627;28;20490;-67
2022/08/25 09:08:57;;;;;;;8.98;3.28;;;40.40;61.90;;;;;;5074673;28;20016;-69
2022/08/25 09:11:33;;;;;;;5.70;2.60;;;40.60;61.10;;;;;;5074748;28;20032;-67
2022/08/25 09:14:43;;;;;;;9.15;2.90;;;40.30;60.90;;;;;;5074345;28;20020;-67
2022/08/25 09:17:18;;;;;;;7.03;2.60;;;40.10;62.10;;;;;;5073768;28;20027;-69
2022/08/25 09:20:01;;;;;;;5.93;2.97;;;40.30;61.40;;;;;;5074277;28;20399;-69
2022/08/25 09:22:27;;;;;;;7.95;2.85;;;40.40;61.10;;;;;;5073607;28;20481;-67
2022/08/25 09:25:01;;;;;;;8.63;3.05;;;40.50;61.00;;;;;;5074359;28;20047;-70
2022/08/25 09:27:49;;;;;;;7.80;2.72;;;40.50;60.50;;;;;;5073886;28;20027;-67
2022/08/25 09:30:17;;;;;;;6.28;2.72;;;40.40;60.60;;;;;;5074499;28;20028;-67
2022/08/25 09:32:53;;;;;;;9.73;3.17;;;40.50;60.00;;;;;;5074111;28;20024;-70
2022/08/25 09:35:25;;;;;;;5.75;3.03;;;40.70;58.80;;;;;;5074352;28;20048;-67
2022/08/25 09:37:59;;;;;;;7.68;2.72;;;40.90;59.10;;;;;;5074114;28;20028;-67
2022/08/25 09:40:28;;;;;;;9.25;2.50;;;41.40;58.10;;;;;;5073514;28;20052;-67
2022/08/25 09:42:56;;;;;;;4.20;2.40;;;41.80;56.10;;;;;;5061768;28;20019;-70
2022/08/25 09:45:40;;;;;;;6.43;2.72;;;41.90;56.70;;;;;;5066692;28;20020;-67
2022/08/25 09:48:40;;;;;;;6.22;2.30;;;42.10;55.80;;;;;;5074142;28;20078;-69
2022/08/25 09:51:23;;;;;;;7.50;2.45;;;42.70;54.80;;;;;;5051027;28;20032;-68
2022/08/25 09:53:58;;;;;;;5.93;2.63;;;42.80;53.60;;;;;;5073678;28;20027;-68
2022/08/25 09:56:27;;;;;;;4.35;2.67;;;42.50;53.50;;;;;;5062290;28;20013;-67
2022/08/25 09:58:56;;;;;;;4.13;2.45;;;42.80;53.10;;;;;;5061854;28;20114;-69
2022/08/25 10:01:22;;;;;;;7.40;2.83;;;42.60;53.10;;;;;;5073274;28;20086;-68
2022/08/25 10:03:55;;;;;;;5.63;2.55;;;42.00;53.30;;;;;;5059113;28;20447;-69
2022/08/25 10:06:22;;;;;;;6.07;2.28;;;41.50;52.70;;;;;;5053062;28;20021;-70
2022/08/25 10:08:48;;;;;;;5.07;2.53;;;40.90;53.00;;;;;;5072986;28;20099;-67
2022/08/25 10:11:36;;;;;;;6.28;2.50;;;40.60;53.50;;;;;;5071620;28;20498;-69
2022/08/25 10:14:30;;;;;;;7.32;2.55;;;40.40;53.80;;;;;;5073291;28;20024;-65
2022/08/25 10:17:27;;;;;;;8.02;2.58;;;40.60;53.50;;;;;;5052718;28;20096;-68
2022/08/25 10:20:18;;;;;;;5.38;2.40;;;40.60;53.80;;;;;;5053317;28;20033;-69
2022/08/25 10:22:44;;;;;;;;;;;40.80;53.50;;;;;;5052401;28;20410;-66
2022/08/25 10:25:12;;;;;;;7.63;2.20;;;40.70;52.80;;;;;;5053334;28;19905;-67
2022/08/25 10:28:08;;;;;;;5.45;2.47;;;40.60;52.40;;;;;;5053420;28;20020;-68
2022/08/25 10:30:42;;;;;;;4.90;2.38;;;40.60;52.20;;;;;;5053525;28;20095;-67
2022/08/25 10:33:38;;;;;;;3.65;2.30;;;40.90;52.00;;;;;;5072667;28;20054;-67
2022/08/25 10:36:03;;;;;;;5.80;2.33;;;41.50;51.80;;;;;;5071405;28;20115;-68
2022/08/25 10:38:44;;;;;;;5.40;2.17;;;42.20;51.20;;;;;;5071510;28;20187;-66
2022/08/25 10:41:41;;;;;;;6.57;2.30;;;42.80;51.30;;;;;;5070859;28;20468;-69
2022/08/25 10:47:47;;;;;;;4.05;2.40;;;43.80;49.90;;;;;;5052840;28;20040;-66
2022/08/25 10:50:34;;;;;;;4.63;2.53;;;44.50;49.00;;;;;;5068972;28;20043;-66
2022/08/25 10:53:16;;;;;;;6.07;2.33;;;44.90;49.10;;;;;;5070798;28;20580;-70
2022/08/25 10:55:54;;;;;;;3.45;2.28;;;45.30;48.60;;;;;;5073072;28;20070;-67
2022/08/25 10:58:46;;;;;;;7.25;2.33;;;45.50;47.90;;;;;;5072995;28;20078;-66
2022/08/25 11:01:34;;;;;;;4.47;2.30;;;45.40;47.30;;;;;;5072068;28;20039;-66
2022/08/25 11:04:12;;;;;;;4.47;2.20;;;45.40;47.20;;;;;;5070875;28;20382;-67
2022/08/25 11:06:44;;;;;;;5.97;2.20;;;45.50;47.30;;;;;;5070617;28;20104;-66
2022/08/25 11:09:17;;;;;;;9.23;2.13;;;45.50;46.40;;;;;;5072384;28;20016;-67
2022/08/25 11:11:55;;;;;;;3.65;2.03;;;45.60;46.30;;;;;;5072599;28;20048;-70
2022/08/25 11:14:31;;;;;;;3.50;1.83;;;45.90;45.50;;;;;;5072720;28;20461;-67
2022/08/25 11:17:17;;;;;;;6.15;2.13;;;46.20;45.50;;;;;;5072567;28;20020;-66
2022/08/25 11:19:48;;;;;;;4.13;2.40;;;46.20;45.50;;;;;;5074366;28;20028;-70
2022/08/25 11:22:20;;;;;;;8.70;2.50;;;46.40;44.80;;;;;;5076317;28;20016;-66
2022/08/25 11:25:12;;;;;;;4.72;2.17;;;46.20;45.00;;;;;;5076443;28;20070;-66
2022/08/25 11:28:05;;;;;;;4.15;2.08;;;46.30;44.50;;;;;;5060259;28;20133;-68
2022/08/25 11:30:31;;;;;;;4.88;2.17;;;46.20;45.20;;;;;;5076270;28;20165;-68
2022/08/25 11:32:57;;;;;;;3.38;2.00;;;46.20;45.00;;;;;;5076153;28;20099;-66
2022/08/25 11:36:00;;;;;;;5.57;2.47;;;46.00;45.20;;;;;;5076377;28;20031;-66
2022/08/25 11:38:54;;;;;;;3.83;2.38;;;45.30;45.10;;;;;;5034181;28;20104;-67
2022/08/25 11:41:29;;;;;;;5.55;2.15;;;44.40;45.90;;;;;;5076212;28;20028;-66
2022/08/25 11:44:03;;;;;;;4.97;2.28;;;43.80;46.10;;;;;;5075977;28;20029;-67
2022/08/25 11:46:35;;;;;;;6.20;2.05;;;43.00;46.30;;;;;;5076431;28;20024;-66
2022/08/25 11:49:42;;;;;;;6.38;2.35;;;42.10;46.70;;;;;;5075132;28;20040;-66
2022/08/25 11:52:30;;;;;;;6.18;2.28;;;41.30;47.60;;;;;;5073784;28;20111;-69
2022/08/25 11:55:05;;;;;;;7.15;2.28;;;40.70;48.40;;;;;;5067487;28;20032;-66
2022/08/25 11:57:31;;;;;;;7.93;2.17;;;40.80;48.40;;;;;;5076128;28;20017;-67
2022/08/25 12:00:08;;;;;;;3.75;2.30;;;40.90;47.80;;;;;;5075824;28;20047;-67
2022/08/25 12:02:43;;;;;;;4.20;2.42;;;41.00;48.60;;;;;;5076077;28;20023;-67
2022/08/25 12:05:18;;;;;;;5.78;2.50;;;40.80;49.10;;;;;;5076035;28;20036;-66
2022/08/25 12:07:46;;;;;;;6.15;2.35;;;40.80;49.50;;;;;;5076052;28;20051;-68
2022/08/25 12:10:19;;;;;;;8.15;2.58;;;41.30;49.00;;;;;;5076047;28;20112;-68
2022/08/25 12:12:45;;;;;;;6.05;2.30;;;41.70;48.60;;;;;;5075865;28;20027;-68
2022/08/25 12:15:28;;;;;;;5.40;2.50;;;42.00;48.80;;;;;;5075727;28;20021;-68
2022/08/25 12:18:15;;;;;;;4.25;2.67;;;42.50;48.00;;;;;;5075893;28;20389;-67
2022/08/25 12:20:53;;;;;;;10.73;3.00;;;42.90;48.30;;;;;;5075645;28;20028;-67
2022/08/25 12:23:35;;;;;;;4.28;2.63;;;43.20;47.90;;;;;;5075761;28;20028;-67
2022/08/25 12:26:30;;;;;;;6.28;2.90;;;43.70;47.40;;;;;;5074627;28;20039;-66
2022/08/25 12:29:08;;;;;;;6.40;2.92;;;44.00;47.70;;;;;;5055640;28;20129;-68
2022/08/25 12:31:58;;;;;;;4.97;2.90;;;44.40;47.30;;;;;;5072457;28;20021;-66
2022/08/25 12:34:35;;;;;;;6.25;2.78;;;44.40;47.00;;;;;;5074137;28;20039;-66
2022/08/25 12:37:09;;;;;;;5.47;2.90;;;44.20;47.40;;;;;;5075199;28;20112;-66
2022/08/25 12:39:41;;;;;;;4.80;2.80;;;44.40;47.10;;;;;;5075260;28;20074;-66
2022/08/25 12:42:23;;;;;;;7.30;3.33;;;44.20;47.10;;;;;;5075674;28;20449;-69
2022/08/25 12:45:07;;;;;;;6.15;3.05;;;44.20;47.80;;;;;;5075240;28;20021;-66
2022/08/25 12:47:33;;;;;;;6.07;2.80;;;43.90;47.90;;;;;;5075145;28;20024;-68
2022/08/25 12:50:31;;;;;;;8.88;3.50;;;43.50;48.00;;;;;;5075035;28;20455;-68
2022/08/25 12:53:10;;;;;;;6.18;3.40;;;42.80;49.00;;;;;;5074269;28;20119;-66
2022/08/25 12:55:40;;;;;;;6.03;2.90;;;42.30;48.60;;;;;;5074576;28;20070;-66
2022/08/25 12:58:07;;;;;;;4.50;2.75;;;42.00;48.80;;;;;;5074915;28;20557;-66
2022/08/25 13:01:06;;;;;;;8.63;3.38;;;41.50;49.00;;;;;;5074882;28;20120;-66
2022/08/25 13:04:02;;;;;;;8.38;3.20;;;41.00;50.10;;;;;;5074908;28;20020;-70
2022/08/25 13:06:51;;;;;;;9.02;3.15;;;40.50;50.70;;;;;;5065459;28;20032;-69